sensor_id;sensor_type;location;lat;lon;timestamp;pressure;altitude;pressure_sealevel;temperature;humidity
5574;BME280;2563;52.242;7.956;2022-11-20T00:00:37;100453.91;;;-6.02;100.00
5574;BME280;2563;52.242;7.956;2022-11-20T00:03:03;100456.16;;;-6.08;100.00
5574;BME280;2563;52.242;7.956;2022-11-20T00:05:28;100439.78;;;-6.00;100.00
5574;BME280;2563;52.242;7.956;2022-11-20T00:07:53;100439.78;;;-6.00;100.00
5574;BME280;2563;52.242;7.956;2022-11-20T00:10:19;100441.25;;;-6.05;100.00
5574;BME280;2563;52.242;7.956;2022-11-20T00:12:44;100436.47;;;-5.99;100.00
5574;BME280;2563;52.242;7.956;2022-11-20T00:15:10;100443.88;;;-6.02;100.00
5574;BME280;2563;52.242;7.956;2022-11-20T00:17:35;100443.50;;;-6.11;100.00
5574;BME280;2563;52.242;7.956;2022-11-20T00:20:00;100455.25;;;-6.10;100.00
5574;BME280;2563;52.242;7.956;2022-11-20T00:22:26;100447.75;;;-6.10;100.00
5574;BME280;2563;52.242;7.956;2022-11-20T00:24:51;100441.13;;;-6.08;100.00
5574;BME280;2563;52.242;7.956;2022-11-20T00:27:16;100438.56;;;-6.10;100.00
5574;BME280;2563;52.242;7.956;2022-11-20T00:29:42;100426.22;;;-6.05;100.00
5574;BME280;2563;52.242;7.956;2022-11-20T00:32:07;100423.75;;;-6.04;100.00
5574;BME280;2563;52.242;7.956;2022-11-20T00:34:32;100421.69;;;-6.14;100.00
5574;BME280;2563;52.242;7.956;2022-11-20T00:36:58;100433.91;;;-6.22;100.00
5574;BME280;2563;52.242;7.956;2022-11-20T00:39:23;100432.59;;;-6.33;100.00
5574;BME280;2563;52.242;7.956;2022-11-20T00:41:49;100425.09;;;-6.33;100.00
5574;BME280;2563;52.242;7.956;2022-11-20T00:44:14;100424.16;;;-6.35;100.00
5574;BME280;2563;52.242;7.956;2022-11-20T00:46:39;100430.94;;;-6.32;100.00
5574;BME280;2563;52.242;7.956;2022-11-20T00:49:05;100437.06;;;-6.26;100.00
5574;BME280;2563;52.242;7.956;2022-11-20T00:51:30;100430.94;;;-6.13;100.00
5574;BME280;2563;52.242;7.956;2022-11-20T00:53:57;100427.31;;;-5.99;100.00
5574;BME280;2563;52.242;7.956;2022-11-20T00:56:22;100430.19;;;-6.10;100.00
5574;BME280;2563;52.242;7.956;2022-11-20T00:58:48;100436.53;;;-6.18;100.00
5574;BME280;2563;52.242;7.956;2022-11-20T01:01:17;100435.50;;;-6.24;100.00
5574;BME280;2563;52.242;7.956;2022-11-20T01:03:45;100431.94;;;-6.29;100.00
5574;BME280;2563;52.242;7.956;2022-11-20T01:06:14;100431.81;;;-6.32;100.00
5574;BME280;2563;52.242;7.956;2022-11-20T01:08:40;100434.38;;;-6.30;100.00
5574;BME280;2563;52.242;7.956;2022-11-20T01:11:26;100427.03;;;-6.26;100.00
5574;BME280;2563;52.242;7.956;2022-11-20T01:13:53;100431.81;;;-6.32;100.00
5574;BME280;2563;52.242;7.956;2022-11-20T01:16:23;100432.47;;;-6.36;100.00
5574;BME280;2563;52.242;7.956;2022-11-20T01:18:51;100428.13;;;-6.40;100.00
5574;BME280;2563;52.242;7.956;2022-11-20T01:21:20;100427.53;;;-6.34;100.00
5574;BME280;2563;52.242;7.956;2022-11-20T01:23:47;100426.81;;;-6.32;100.00
5574;BME280;2563;52.242;7.956;2022-11-20T01:26:16;100431.44;;;-6.41;100.00
5574;BME280;2563;52.242;7.956;2022-11-20T01:28:42;100425.41;;;-6.45;100.00
5574;BME280;2563;52.242;7.956;2022-11-20T01:31:31;100418.63;;;-6.47;100.00
5574;BME280;2563;52.242;7.956;2022-11-20T01:34:00;100421.41;;;-6.41;100.00
5574;BME280;2563;52.242;7.956;2022-11-20T01:36:28;100424.56;;;-6.45;100.00
5574;BME280;2563;52.242;7.956;2022-11-20T01:38:55;100416.88;;;-6.50;100.00
5574;BME280;2563;52.242;7.956;2022-11-20T01:41:21;100411.94;;;-6.48;100.00
5574;BME280;2563;52.242;7.956;2022-11-20T01:44:05;100411.00;;;-6.50;100.00
5574;BME280;2563;52.242;7.956;2022-11-20T01:46:32;100409.28;;;-6.51;100.00
5574;BME280;2563;52.242;7.956;2022-11-20T01:49:05;100405.88;;;-6.53;100.00
5574;BME280;2563;52.242;7.956;2022-11-20T01:51:54;100411.22;;;-6.65;100.00
5574;BME280;2563;52.242;7.956;2022-11-20T01:54:28;100407.31;;;-6.58;100.00
5574;BME280;2563;52.242;7.956;2022-11-20T01:56:57;100408.44;;;-6.52;100.00
5574;BME280;2563;52.242;7.956;2022-11-20T01:59:25;100406.00;;;-6.50;100.00
5574;BME280;2563;52.242;7.956;2022-11-20T02:01:51;100400.06;;;-6.52;100.00
5574;BME280;2563;52.242;7.956;2022-11-20T02:04:17;100392.91;;;-6.64;100.00
5574;BME280;2563;52.242;7.956;2022-11-20T02:06:57;100389.63;;;-6.63;100.00
5574;BME280;2563;52.242;7.956;2022-11-20T02:09:24;100385.28;;;-6.87;100.00
5574;BME280;2563;52.242;7.956;2022-11-20T02:11:49;100387.81;;;-6.85;100.00
5574;BME280;2563;52.242;7.956;2022-11-20T02:14:15;100380.41;;;-6.83;100.00
5574;BME280;2563;52.242;7.956;2022-11-20T02:16:45;100379.34;;;-6.69;100.00
5574;BME280;2563;52.242;7.956;2022-11-20T02:19:27;100389.34;;;-6.69;100.00
5574;BME280;2563;52.242;7.956;2022-11-20T02:22:14;100385.06;;;-6.72;100.00
5574;BME280;2563;52.242;7.956;2022-11-20T02:24:43;100378.34;;;-6.73;100.00
5574;BME280;2563;52.242;7.956;2022-11-20T02:27:12;100371.09;;;-6.67;100.00
5574;BME280;2563;52.242;7.956;2022-11-20T02:29:54;100371.19;;;-6.65;100.00
5574;BME280;2563;52.242;7.956;2022-11-20T02:32:32;100370.97;;;-6.70;100.00
5574;BME280;2563;52.242;7.956;2022-11-20T02:34:58;100367.56;;;-6.72;100.00
5574;BME280;2563;52.242;7.956;2022-11-20T02:37:33;100368.22;;;-6.76;100.00
5574;BME280;2563;52.242;7.956;2022-11-20T02:40:00;100369.13;;;-6.93;100.00
5574;BME280;2563;52.242;7.956;2022-11-20T02:42:26;100368.53;;;-6.88;100.00
5574;BME280;2563;52.242;7.956;2022-11-20T02:44:51;100353.84;;;-6.60;100.00
5574;BME280;2563;52.242;7.956;2022-11-20T02:47:16;100357.41;;;-6.55;100.00
5574;BME280;2563;52.242;7.956;2022-11-20T02:49:42;100363.88;;;-6.60;100.00
5574;BME280;2563;52.242;7.956;2022-11-20T02:52:07;100368.34;;;-6.73;100.00
5574;BME280;2563;52.242;7.956;2022-11-20T02:54:32;100374.06;;;-6.75;100.00
5574;BME280;2563;52.242;7.956;2022-11-20T02:56:58;100377.38;;;-6.76;100.00
5574;BME280;2563;52.242;7.956;2022-11-20T02:59:23;100375.59;;;-6.79;100.00
5574;BME280;2563;52.242;7.956;2022-11-20T03:01:49;100374.13;;;-6.74;100.00
5574;BME280;2563;52.242;7.956;2022-11-20T03:04:14;100362.09;;;-6.63;100.00
5574;BME280;2563;52.242;7.956;2022-11-20T03:06:39;100365.19;;;-6.69;100.00
5574;BME280;2563;52.242;7.956;2022-11-20T03:09:05;100364.97;;;-6.73;100.00
5574;BME280;2563;52.242;7.956;2022-11-20T03:11:30;100360.59;;;-6.79;100.00
5574;BME280;2563;52.242;7.956;2022-11-20T03:13:56;100363.81;;;-6.81;100.00
5574;BME280;2563;52.242;7.956;2022-11-20T03:16:22;100367.81;;;-6.85;100.00
5574;BME280;2563;52.242;7.956;2022-11-20T03:18:48;100359.38;;;-6.87;100.00
5574;BME280;2563;52.242;7.956;2022-11-20T03:21:15;100362.56;;;-6.91;100.00
5574;BME280;2563;52.242;7.956;2022-11-20T03:23:40;100361.00;;;-6.89;100.00
5574;BME280;2563;52.242;7.956;2022-11-20T03:26:12;100361.88;;;-6.87;100.00
5574;BME280;2563;52.242;7.956;2022-11-20T03:28:37;100357.25;;;-6.99;100.00
5574;BME280;2563;52.242;7.956;2022-11-20T03:31:11;100354.75;;;-6.99;100.00
5574;BME280;2563;52.242;7.956;2022-11-20T03:33:37;100355.59;;;-6.98;100.00
5574;BME280;2563;52.242;7.956;2022-11-20T03:36:04;100349.78;;;-6.97;100.00
5574;BME280;2563;52.242;7.956;2022-11-20T03:38:30;100348.13;;;-6.97;100.00
5574;BME280;2563;52.242;7.956;2022-11-20T03:41:05;100348.72;;;-7.02;100.00
5574;BME280;2563;52.242;7.956;2022-11-20T03:43:31;100346.88;;;-7.07;100.00
5574;BME280;2563;52.242;7.956;2022-11-20T03:45:56;100337.75;;;-7.06;100.00
5574;BME280;2563;52.242;7.956;2022-11-20T03:48:22;100337.94;;;-7.01;100.00
5574;BME280;2563;52.242;7.956;2022-11-20T03:50:47;100339.53;;;-7.03;100.00
5574;BME280;2563;52.242;7.956;2022-11-20T03:53:14;100340.38;;;-7.03;100.00
5574;BME280;2563;52.242;7.956;2022-11-20T03:55:39;100342.56;;;-7.11;100.00
5574;BME280;2563;52.242;7.956;2022-11-20T03:58:05;100342.03;;;-7.03;100.00
5574;BME280;2563;52.242;7.956;2022-11-20T04:00:30;100332.16;;;-7.00;100.00
5574;BME280;2563;52.242;7.956;2022-11-20T04:02:59;100336.44;;;-6.98;100.00
5574;BME280;2563;52.242;7.956;2022-11-20T04:05:25;100340.97;;;-7.09;100.00
5574;BME280;2563;52.242;7.956;2022-11-20T04:07:50;100328.72;;;-7.02;100.00
5574;BME280;2563;52.242;7.956;2022-11-20T04:10:16;100325.50;;;-7.00;100.00
5574;BME280;2563;52.242;7.956;2022-11-20T04:12:41;100319.66;;;-7.00;100.00
5574;BME280;2563;52.242;7.956;2022-11-20T04:15:07;100325.09;;;-7.09;100.00
5574;BME280;2563;52.242;7.956;2022-11-20T04:17:32;100320.28;;;-7.04;100.00
5574;BME280;2563;52.242;7.956;2022-11-20T04:19:57;100322.03;;;-7.03;100.00
5574;BME280;2563;52.242;7.956;2022-11-20T04:22:23;100325.97;;;-7.09;100.00
5574;BME280;2563;52.242;7.956;2022-11-20T04:24:48;100326.03;;;-7.07;100.00
5574;BME280;2563;52.242;7.956;2022-11-20T04:27:14;100321.75;;;-7.10;100.00
5574;BME280;2563;52.242;7.956;2022-11-20T04:29:39;100322.03;;;-7.03;100.00
5574;BME280;2563;52.242;7.956;2022-11-20T04:32:04;100316.63;;;-7.13;100.00
5574;BME280;2563;52.242;7.956;2022-11-20T04:34:30;100314.78;;;-7.17;100.00
5574;BME280;2563;52.242;7.956;2022-11-20T04:36:55;100314.66;;;-7.20;100.00
5574;BME280;2563;52.242;7.956;2022-11-20T04:39:20;100313.31;;;-7.12;100.00
5574;BME280;2563;52.242;7.956;2022-11-20T04:41:46;100319.31;;;-7.08;100.00
5574;BME280;2563;52.242;7.956;2022-11-20T04:44:11;100324.66;;;-7.20;100.00
5574;BME280;2563;52.242;7.956;2022-11-20T04:46:39;100328.31;;;-7.12;100.00
5574;BME280;2563;52.242;7.956;2022-11-20T04:49:05;100319.91;;;-7.14;100.00
5574;BME280;2563;52.242;7.956;2022-11-20T04:51:31;100320.69;;;-7.15;100.00
5574;BME280;2563;52.242;7.956;2022-11-20T04:53:57;100323.50;;;-7.27;100.00
5574;BME280;2563;52.242;7.956;2022-11-20T04:56:22;100324.25;;;-7.29;100.00
5574;BME280;2563;52.242;7.956;2022-11-20T04:58:48;100321.09;;;-7.25;100.00
5574;BME280;2563;52.242;7.956;2022-11-20T05:01:16;100316.09;;;-7.25;100.00
5574;BME280;2563;52.242;7.956;2022-11-20T05:03:43;100317.66;;;-7.27;100.00
5574;BME280;2563;52.242;7.956;2022-11-20T05:06:10;100312.53;;;-7.30;100.00
5574;BME280;2563;52.242;7.956;2022-11-20T05:08:36;100312.34;;;-7.35;100.00
5574;BME280;2563;52.242;7.956;2022-11-20T05:11:07;100318.44;;;-7.28;100.00
5574;BME280;2563;52.242;7.956;2022-11-20T05:13:33;100316.53;;;-7.14;100.00
5574;BME280;2563;52.242;7.956;2022-11-20T05:16:19;100317.59;;;-7.29;100.00
5574;BME280;2563;52.242;7.956;2022-11-20T05:18:44;100312.34;;;-7.35;100.00
5574;BME280;2563;52.242;7.956;2022-11-20T05:21:11;100311.34;;;-7.38;100.00
5574;BME280;2563;52.242;7.956;2022-11-20T05:23:37;100306.63;;;-7.32;100.00
5574;BME280;2563;52.242;7.956;2022-11-20T05:26:04;100297.66;;;-7.27;100.00
5574;BME280;2563;52.242;7.956;2022-11-20T05:28:31;100299.25;;;-7.29;100.00
5574;BME280;2563;52.242;7.956;2022-11-20T05:31:04;100307.25;;;-7.36;100.00
5574;BME280;2563;52.242;7.956;2022-11-20T05:33:30;100291.66;;;-7.31;100.00
5574;BME280;2563;52.242;7.956;2022-11-20T05:35:58;100295.56;;;-7.37;100.00
5574;BME280;2563;52.242;7.956;2022-11-20T05:38:23;100298.06;;;-7.37;100.00
5574;BME280;2563;52.242;7.956;2022-11-20T05:40:48;100293.97;;;-7.35;100.00
5574;BME280;2563;52.242;7.956;2022-11-20T05:43:14;100292.13;;;-7.39;100.00
5574;BME280;2563;52.242;7.956;2022-11-20T05:45:39;100291.84;;;-7.45;100.00
5574;BME280;2563;52.242;7.956;2022-11-20T05:48:04;100295.69;;;-7.34;100.00
5574;BME280;2563;52.242;7.956;2022-11-20T05:50:30;100302.25;;;-7.36;100.00
5574;BME280;2563;52.242;7.956;2022-11-20T05:52:58;100301.25;;;-7.40;100.00
5574;BME280;2563;52.242;7.956;2022-11-20T05:55:24;100304.63;;;-7.39;100.00
5574;BME280;2563;52.242;7.956;2022-11-20T05:57:52;100291.25;;;-7.40;100.00
5574;BME280;2563;52.242;7.956;2022-11-20T06:00:18;100293.72;;;-7.41;100.00
5574;BME280;2563;52.242;7.956;2022-11-20T06:02:43;100295.56;;;-7.37;100.00
5574;BME280;2563;52.242;7.956;2022-11-20T06:05:09;100296.72;;;-7.49;100.00
5574;BME280;2563;52.242;7.956;2022-11-20T06:07:34;100294.75;;;-7.56;100.00
5574;BME280;2563;52.242;7.956;2022-11-20T06:10:00;100291.84;;;-7.45;100.00
5574;BME280;2563;52.242;7.956;2022-11-20T06:12:25;100286.00;;;-7.46;100.00
5574;BME280;2563;52.242;7.956;2022-11-20T06:14:50;100296.00;;;-7.46;100.00
5574;BME280;2563;52.242;7.956;2022-11-20T06:17:16;100276.63;;;-7.52;100.00
5574;BME280;2563;52.242;7.956;2022-11-20T06:19:41;100283.38;;;-7.49;100.00
5574;BME280;2563;52.242;7.956;2022-11-20T06:22:06;100285.22;;;-7.45;100.00
5574;BME280;2563;52.242;7.956;2022-11-20T06:24:32;100290.41;;;-7.40;100.00
5574;BME280;2563;52.242;7.956;2022-11-20T06:26:57;100291.97;;;-7.42;100.00
5574;BME280;2563;52.242;7.956;2022-11-20T06:29:22;100290.00;;;-7.50;100.00
5574;BME280;2563;52.242;7.956;2022-11-20T06:31:48;100291.44;;;-7.55;100.00
5574;BME280;2563;52.242;7.956;2022-11-20T06:34:13;100293.72;;;-7.41;100.00
5574;BME280;2563;52.242;7.956;2022-11-20T06:36:39;100290.56;;;-7.37;100.00
5574;BME280;2563;52.242;7.956;2022-11-20T06:39:04;100288.44;;;-7.28;100.00
5574;BME280;2563;52.242;7.956;2022-11-20T06:41:29;100294.69;;;-7.38;100.00
5574;BME280;2563;52.242;7.956;2022-11-20T06:43:55;100289.13;;;-7.32;100.00
5574;BME280;2563;52.242;7.956;2022-11-20T06:46:21;100290.81;;;-7.31;100.00
5574;BME280;2563;52.242;7.956;2022-11-20T06:48:47;100285.41;;;-7.40;100.00
5574;BME280;2563;52.242;7.956;2022-11-20T06:51:12;100288.97;;;-7.35;100.00
5574;BME280;2563;52.242;7.956;2022-11-20T06:53:38;100302.47;;;-7.32;100.00
5574;BME280;2563;52.242;7.956;2022-11-20T06:56:04;100298.06;;;-7.18;100.00
5574;BME280;2563;52.242;7.956;2022-11-20T06:58:31;100306.75;;;-7.10;100.00
5574;BME280;2563;52.242;7.956;2022-11-20T07:01:03;100306.63;;;-7.13;100.00
5574;BME280;2563;52.242;7.956;2022-11-20T07:03:28;100309.50;;;-6.84;100.00
5574;BME280;2563;52.242;7.956;2022-11-20T07:05:58;100303.97;;;-6.77;100.00
5574;BME280;2563;52.242;7.956;2022-11-20T07:08:24;100304.88;;;-6.75;100.00
5574;BME280;2563;52.242;7.956;2022-11-20T07:10:49;100309.63;;;-6.81;100.00
5574;BME280;2563;52.242;7.956;2022-11-20T07:13:15;100310.78;;;-6.73;100.00
5574;BME280;2563;52.242;7.956;2022-11-20T07:15:40;100302.91;;;-6.61;100.00
5574;BME280;2563;52.242;7.956;2022-11-20T07:18:05;100303.25;;;-6.53;100.00
5574;BME280;2563;52.242;7.956;2022-11-20T07:20:31;100310.16;;;-6.48;100.00
5574;BME280;2563;52.242;7.956;2022-11-20T07:22:57;100305.22;;;-6.46;100.00
5574;BME280;2563;52.242;7.956;2022-11-20T07:25:23;100306.06;;;-6.46;100.00
5574;BME280;2563;52.242;7.956;2022-11-20T07:27:49;100309.66;;;-6.39;100.00
5574;BME280;2563;52.242;7.956;2022-11-20T07:30:15;100297.44;;;-6.31;100.00
5574;BME280;2563;52.242;7.956;2022-11-20T07:32:40;100292.25;;;-6.15;100.00
5574;BME280;2563;52.242;7.956;2022-11-20T07:35:06;100278.91;;;-6.14;100.00
5574;BME280;2563;52.242;7.956;2022-11-20T07:37:34;100275.56;;;-6.14;100.00
5574;BME280;2563;52.242;7.956;2022-11-20T07:39:59;100270.09;;;-6.04;100.00
5574;BME280;2563;52.242;7.956;2022-11-20T07:42:25;100275.47;;;-5.95;100.00
5574;BME280;2563;52.242;7.956;2022-11-20T07:44:53;100268.94;;;-5.67;100.00
5574;BME280;2563;52.242;7.956;2022-11-20T07:47:18;100250.09;;;-5.33;100.00
5574;BME280;2563;52.242;7.956;2022-11-20T07:49:44;100246.09;;;-5.03;100.00
5574;BME280;2563;52.242;7.956;2022-11-20T07:52:09;100235.31;;;-4.75;100.00
5574;BME280;2563;52.242;7.956;2022-11-20T07:54:35;100234.75;;;-4.40;100.00
5574;BME280;2563;52.242;7.956;2022-11-20T07:57:00;100232.16;;;-4.15;100.00
5574;BME280;2563;52.242;7.956;2022-11-20T07:59:25;100232.72;;;-3.96;100.00
5574;BME280;2563;52.242;7.956;2022-11-20T08:01:51;100227.28;;;-3.81;100.00
5574;BME280;2563;52.242;7.956;2022-11-20T08:04:16;100218.50;;;-3.66;100.00
5574;BME280;2563;52.242;7.956;2022-11-20T08:06:42;100217.09;;;-3.56;100.00
5574;BME280;2563;52.242;7.956;2022-11-20T08:09:07;100217.38;;;-3.45;100.00
5574;BME280;2563;52.242;7.956;2022-11-20T08:11:32;100211.63;;;-3.41;100.00
5574;BME280;2563;52.242;7.956;2022-11-20T08:14:16;100216.00;;;-3.34;100.00
5574;BME280;2563;52.242;7.956;2022-11-20T08:16:45;100220.22;;;-3.33;100.00
5574;BME280;2563;52.242;7.956;2022-11-20T08:19:12;100219.63;;;-3.24;100.00
5574;BME280;2563;52.242;7.956;2022-11-20T08:21:38;100208.09;;;-3.16;100.00
5574;BME280;2563;52.242;7.956;2022-11-20T08:24:04;100199.78;;;-3.13;100.00
5574;BME280;2563;52.242;7.956;2022-11-20T08:26:30;100191.41;;;-3.12;100.00
5574;BME280;2563;52.242;7.956;2022-11-20T08:28:56;100195.03;;;-3.01;100.00
5574;BME280;2563;52.242;7.956;2022-11-20T08:31:24;100202.81;;;-2.92;100.00
5574;BME280;2563;52.242;7.956;2022-11-20T08:33:50;100212.25;;;-2.85;100.00
5574;BME280;2563;52.242;7.956;2022-11-20T08:36:15;100204.81;;;-2.79;100.00
5574;BME280;2563;52.242;7.956;2022-11-20T08:38:41;100207.41;;;-2.75;100.00
5574;BME280;2563;52.242;7.956;2022-11-20T08:41:06;100213.41;;;-2.70;100.00
5574;BME280;2563;52.242;7.956;2022-11-20T08:43:52;100219.47;;;-2.62;100.00
5574;BME280;2563;52.242;7.956;2022-11-20T08:46:17;100222.06;;;-2.61;100.00
5574;BME280;2563;52.242;7.956;2022-11-20T08:48:44;100223.91;;;-2.53;100.00
5574;BME280;2563;52.242;7.956;2022-11-20T08:51:10;100214.78;;;-2.47;100.00
5574;BME280;2563;52.242;7.956;2022-11-20T08:53:36;100219.34;;;-2.32;100.00
5574;BME280;2563;52.242;7.956;2022-11-20T08:56:01;100220.47;;;-2.19;100.00
5574;BME280;2563;52.242;7.956;2022-11-20T08:58:27;100221.47;;;-2.12;100.00
5574;BME280;2563;52.242;7.956;2022-11-20T09:00:53;100227.41;;;-2.09;100.00
5574;BME280;2563;52.242;7.956;2022-11-20T09:03:18;100230.81;;;-2.07;100.00
5574;BME280;2563;52.242;7.956;2022-11-20T09:05:44;100239.41;;;-1.99;100.00
5574;BME280;2563;52.242;7.956;2022-11-20T09:08:10;100227.66;;;-1.97;100.00
5574;BME280;2563;52.242;7.956;2022-11-20T09:10:35;100233.75;;;-1.87;100.00
5574;BME280;2563;52.242;7.956;2022-11-20T09:13:02;100230.53;;;-1.81;100.00
5574;BME280;2563;52.242;7.956;2022-11-20T09:15:27;100228.09;;;-1.77;100.00
5574;BME280;2563;52.242;7.956;2022-11-20T09:17:54;100233.25;;;-1.72;100.00
5574;BME280;2563;52.242;7.956;2022-11-20T09:20:20;100240.03;;;-1.68;100.00
5574;BME280;2563;52.242;7.956;2022-11-20T09:22:46;100239.22;;;-1.65;100.00
5574;BME280;2563;52.242;7.956;2022-11-20T09:25:12;100237.69;;;-1.60;100.00
5574;BME280;2563;52.242;7.956;2022-11-20T09:27:37;100234.28;;;-1.61;100.00
5574;BME280;2563;52.242;7.956;2022-11-20T09:30:04;100236.94;;;-1.55;100.00
5574;BME280;2563;52.242;7.956;2022-11-20T09:32:29;100233.72;;;-1.47;100.00
5574;BME280;2563;52.242;7.956;2022-11-20T09:34:55;100227.97;;;-1.40;100.00
5574;BME280;2563;52.242;7.956;2022-11-20T09:37:20;100224.84;;;-1.27;100.00
5574;BME280;2563;52.242;7.956;2022-11-20T09:39:46;100216.41;;;-1.29;100.00
5574;BME280;2563;52.242;7.956;2022-11-20T09:49:59;100203.28;;;-1.08;100.00
5574;BME280;2563;52.242;7.956;2022-11-20T09:55:38;100202.72;;;-0.93;100.00
5574;BME280;2563;52.242;7.956;2022-11-20T09:58:20;100207.09;;;-0.81;100.00
5574;BME280;2563;52.242;7.956;2022-11-20T10:00:51;100197.72;;;-0.90;100.00
5574;BME280;2563;52.242;7.956;2022-11-20T10:03:25;100194.78;;;-0.63;100.00
5574;BME280;2563;52.242;7.956;2022-11-20T10:05:58;100190.00;;;-0.45;100.00
5574;BME280;2563;52.242;7.956;2022-11-20T10:09:00;100187.38;;;-0.52;100.00
5574;BME280;2563;52.242;7.956;2022-11-20T10:11:30;100178.13;;;-0.50;100.00
5574;BME280;2563;52.242;7.956;2022-11-20T10:17:03;100183.00;;;-0.61;100.00
5574;BME280;2563;52.242;7.956;2022-11-20T10:30:09;100167.78;;;-0.03;100.00
5574;BME280;2563;52.242;7.956;2022-11-20T10:32:45;100156.13;;;0.08;100.00
5574;BME280;2563;52.242;7.956;2022-11-20T10:37:44;100145.50;;;0.40;100.00
5574;BME280;2563;52.242;7.956;2022-11-20T10:42:59;100161.00;;;0.68;100.00
5574;BME280;2563;52.242;7.956;2022-11-20T10:50:49;100121.25;;;1.83;100.00
5574;BME280;2563;52.242;7.956;2022-11-20T11:01:41;100119.72;;;2.42;100.00
5574;BME280;2563;52.242;7.956;2022-11-20T11:09:49;100100.88;;;3.99;100.00
5574;BME280;2563;52.242;7.956;2022-11-20T11:12:15;100114.72;;;3.18;100.00
5574;BME280;2563;52.242;7.956;2022-11-20T11:14:51;100120.66;;;2.88;100.00
5574;BME280;2563;52.242;7.956;2022-11-20T11:17:28;100142.66;;;2.62;100.00
5574;BME280;2563;52.242;7.956;2022-11-20T11:20:03;100135.88;;;3.28;100.00
5574;BME280;2563;52.242;7.956;2022-11-20T11:22:32;100146.88;;;3.50;100.00
5574;BME280;2563;52.242;7.956;2022-11-20T11:24:58;100154.19;;;4.39;100.00
5574;BME280;2563;52.242;7.956;2022-11-20T11:27:23;100165.94;;;4.63;100.00
5574;BME280;2563;52.242;7.956;2022-11-20T11:29:49;100173.44;;;5.81;100.00
5574;BME280;2563;52.242;7.956;2022-11-20T11:32:17;100200.06;;;5.58;100.00
5574;BME280;2563;52.242;7.956;2022-11-20T11:34:43;100217.50;;;6.06;100.00
5574;BME280;2563;52.242;7.956;2022-11-20T11:37:19;100230.88;;;6.94;100.00
5574;BME280;2563;52.242;7.956;2022-11-20T11:39:47;100261.97;;;6.64;100.00
5574;BME280;2563;52.242;7.956;2022-11-20T11:42:17;100284.88;;;5.94;100.00
5574;BME280;2563;52.242;7.956;2022-11-20T11:44:45;100317.03;;;6.16;100.00
5574;BME280;2563;52.242;7.956;2022-11-20T11:56:08;100459.09;;;4.56;100.00
5574;BME280;2563;52.242;7.956;2022-11-20T12:01:33;100506.66;;;4.40;100.00
5574;BME280;2563;52.242;7.956;2022-11-20T12:06:48;100539.75;;;4.00;100.00
5574;BME280;2563;52.242;7.956;2022-11-20T12:09:18;100559.88;;;3.45;100.00
5574;BME280;2563;52.242;7.956;2022-11-20T12:11:51;100587.44;;;2.85;100.00
5574;BME280;2563;52.242;7.956;2022-11-20T12:14:26;100622.50;;;2.28;100.00
5574;BME280;2563;52.242;7.956;2022-11-20T12:16:54;100622.47;;;2.23;100.00
5574;BME280;2563;52.242;7.956;2022-11-20T12:19:21;100627.41;;;2.11;100.00
5574;BME280;2563;52.242;7.956;2022-11-20T12:22:05;100631.31;;;1.86;100.00
5574;BME280;2563;52.242;7.956;2022-11-20T12:35:07;100615.81;;;1.63;100.00
5574;BME280;2563;52.242;7.956;2022-11-20T12:40:30;100609.91;;;1.64;100.00
5574;BME280;2563;52.242;7.956;2022-11-20T12:48:46;100588.56;;;2.18;100.00
5574;BME280;2563;52.242;7.956;2022-11-20T13:07:56;100576.78;;;2.26;100.00
5574;BME280;2563;52.242;7.956;2022-11-20T13:13:01;100578.38;;;2.17;100.00
5574;BME280;2563;52.242;7.956;2022-11-20T13:15:59;100585.84;;;2.01;100.00
5574;BME280;2563;52.242;7.956;2022-11-20T13:18:36;100583.06;;;1.84;100.00
5574;BME280;2563;52.242;7.956;2022-11-20T13:21:13;100588.91;;;1.77;100.00
5574;BME280;2563;52.242;7.956;2022-11-20T13:23:39;100591.44;;;1.77;100.00
5574;BME280;2563;52.242;7.956;2022-11-20T13:26:13;100577.22;;;1.87;100.00
5574;BME280;2563;52.242;7.956;2022-11-20T13:28:39;100572.97;;;1.87;100.00
5574;BME280;2563;52.242;7.956;2022-11-20T13:31:31;100572.03;;;1.81;100.00
5574;BME280;2563;52.242;7.956;2022-11-20T13:33:58;100556.78;;;1.76;100.00
5574;BME280;2563;52.242;7.956;2022-11-20T13:36:27;100549.25;;;1.82;100.00
5574;BME280;2563;52.242;7.956;2022-11-20T13:38:54;100543.22;;;1.77;100.00
5574;BME280;2563;52.242;7.956;2022-11-20T13:41:34;100537.28;;;1.74;100.00
5574;BME280;2563;52.242;7.956;2022-11-20T13:46:42;100507.94;;;1.97;100.00
5574;BME280;2563;52.242;7.956;2022-11-20T13:49:16;100501.94;;;1.90;100.00
5574;BME280;2563;52.242;7.956;2022-11-20T14:00:21;100489.22;;;1.87;100.00
5574;BME280;2563;52.242;7.956;2022-11-20T14:03:15;100484.94;;;1.83;100.00
5574;BME280;2563;52.242;7.956;2022-11-20T14:08:48;100464.50;;;1.68;100.00
5574;BME280;2563;52.242;7.956;2022-11-20T14:11:17;100454.47;;;1.80;100.00
5574;BME280;2563;52.242;7.956;2022-11-20T14:16:47;100432.41;;;1.73;100.00
5574;BME280;2563;52.242;7.956;2022-11-20T14:21:44;100423.97;;;1.74;100.00
5574;BME280;2563;52.242;7.956;2022-11-20T14:24:11;100421.41;;;1.74;100.00
5574;BME280;2563;52.242;7.956;2022-11-20T14:26:41;100415.47;;;1.72;100.00
5574;BME280;2563;52.242;7.956;2022-11-20T14:29:14;100412.81;;;1.58;100.00
5574;BME280;2563;52.242;7.956;2022-11-20T14:31:42;100406.03;;;1.57;100.00
5574;BME280;2563;52.242;7.956;2022-11-20T14:34:25;100401.00;;;1.62;100.00
5574;BME280;2563;52.242;7.956;2022-11-20T14:36:55;100394.16;;;1.55;100.00
5574;BME280;2563;52.242;7.956;2022-11-20T14:39:26;100389.06;;;1.53;100.00
5574;BME280;2563;52.242;7.956;2022-11-20T14:41:53;100378.88;;;1.44;100.00
5574;BME280;2563;52.242;7.956;2022-11-20T14:44:37;100379.63;;;1.38;100.00
5574;BME280;2563;52.242;7.956;2022-11-20T14:47:03;100370.34;;;1.39;100.00
5574;BME280;2563;52.242;7.956;2022-11-20T14:49:30;100357.69;;;1.43;100.00
5574;BME280;2563;52.242;7.956;2022-11-20T14:52:15;100349.28;;;1.47;100.00
5574;BME280;2563;52.242;7.956;2022-11-20T14:59:49;100331.38;;;1.31;100.00
5574;BME280;2563;52.242;7.956;2022-11-20T15:02:14;100322.03;;;1.25;100.00
5574;BME280;2563;52.242;7.956;2022-11-20T15:04:56;100330.44;;;1.21;100.00
5574;BME280;2563;52.242;7.956;2022-11-20T15:07:27;100319.41;;;1.17;100.00
5574;BME280;2563;52.242;7.956;2022-11-20T15:12:29;100315.94;;;1.08;100.00
5574;BME280;2563;52.242;7.956;2022-11-20T15:14:55;100322.69;;;1.05;100.00
5574;BME280;2563;52.242;7.956;2022-11-20T15:17:20;100315.94;;;1.08;100.00